sensor_id;sensor_type;location;lat;lon;timestamp;temperature;humidity
59208;DHT22;44977;53.132;6.408;2024-02-15T00:04:50;10.90;99.90
59208;DHT22;44977;53.132;6.408;2024-02-15T00:09:51;10.90;99.90
59208;DHT22;44977;53.132;6.408;2024-02-15T00:14:52;10.90;99.90
59208;DHT22;44977;53.132;6.408;2024-02-15T00:19:52;10.90;99.90
59208;DHT22;44977;53.132;6.408;2024-02-15T00:24:53;10.90;99.90
59208;DHT22;44977;53.132;6.408;2024-02-15T00:29:54;10.90;99.90
59208;DHT22;44977;53.132;6.408;2024-02-15T00:34:54;10.90;99.90
59208;DHT22;44977;53.132;6.408;2024-02-15T00:39:55;10.90;99.90
59208;DHT22;44977;53.132;6.408;2024-02-15T00:44:56;10.90;99.90
59208;DHT22;44977;53.132;6.408;2024-02-15T00:49:57;10.90;99.90
59208;DHT22;44977;53.132;6.408;2024-02-15T00:54:57;10.90;99.90
59208;DHT22;44977;53.132;6.408;2024-02-15T00:59:58;10.90;99.90
59208;DHT22;44977;53.132;6.408;2024-02-15T01:04:59;10.90;99.90
59208;DHT22;44977;53.132;6.408;2024-02-15T01:10:00;10.90;99.90
59208;DHT22;44977;53.132;6.408;2024-02-15T01:15:01;10.90;99.90
59208;DHT22;44977;53.132;6.408;2024-02-15T01:20:03;11.00;99.90
59208;DHT22;44977;53.132;6.408;2024-02-15T01:25:04;10.90;99.90
59208;DHT22;44977;53.132;6.408;2024-02-15T01:30:05;10.90;99.90
59208;DHT22;44977;53.132;6.408;2024-02-15T01:35:06;10.90;99.90
59208;DHT22;44977;53.132;6.408;2024-02-15T01:40:08;10.90;99.90
59208;DHT22;44977;53.132;6.408;2024-02-15T01:45:13;11.00;99.90
59208;DHT22;44977;53.132;6.408;2024-02-15T01:50:16;11.00;99.90
59208;DHT22;44977;53.132;6.408;2024-02-15T01:55:18;11.00;99.90
59208;DHT22;44977;53.132;6.408;2024-02-15T02:00:19;11.00;99.90
59208;DHT22;44977;53.132;6.408;2024-02-15T02:05:20;11.00;99.90
59208;DHT22;44977;53.132;6.408;2024-02-15T02:10:21;11.00;99.90
59208;DHT22;44977;53.132;6.408;2024-02-15T02:15:22;11.00;99.90
59208;DHT22;44977;53.132;6.408;2024-02-15T02:20:22;11.00;99.90
59208;DHT22;44977;53.132;6.408;2024-02-15T02:25:24;11.00;99.90
59208;DHT22;44977;53.132;6.408;2024-02-15T02:30:28;11.10;99.90
59208;DHT22;44977;53.132;6.408;2024-02-15T02:35:33;11.00;99.90
59208;DHT22;44977;53.132;6.408;2024-02-15T02:40:33;11.10;99.90
59208;DHT22;44977;53.132;6.408;2024-02-15T02:45:35;11.10;99.90
59208;DHT22;44977;53.132;6.408;2024-02-15T02:50:36;11.10;99.90
59208;DHT22;44977;53.132;6.408;2024-02-15T02:55:37;11.10;99.90
59208;DHT22;44977;53.132;6.408;2024-02-15T03:00:38;11.00;99.90
59208;DHT22;44977;53.132;6.408;2024-02-15T03:05:39;11.00;99.90
59208;DHT22;44977;53.132;6.408;2024-02-15T03:10:40;11.00;99.90
59208;DHT22;44977;53.132;6.408;2024-02-15T03:15:41;11.00;99.90
59208;DHT22;44977;53.132;6.408;2024-02-15T03:20:42;11.00;99.90
59208;DHT22;44977;53.132;6.408;2024-02-15T03:25:43;11.00;99.90
59208;DHT22;44977;53.132;6.408;2024-02-15T03:30:45;11.00;99.90
59208;DHT22;44977;53.132;6.408;2024-02-15T03:35:46;11.00;99.90
59208;DHT22;44977;53.132;6.408;2024-02-15T03:40:47;11.00;99.90
59208;DHT22;44977;53.132;6.408;2024-02-15T03:45:47;11.00;99.90
59208;DHT22;44977;53.132;6.408;2024-02-15T03:50:48;11.00;99.90
59208;DHT22;44977;53.132;6.408;2024-02-15T03:55:49;11.00;99.90
59208;DHT22;44977;53.132;6.408;2024-02-15T04:00:54;11.10;99.90
59208;DHT22;44977;53.132;6.408;2024-02-15T04:05:56;11.10;99.90
59208;DHT22;44977;53.132;6.408;2024-02-15T04:10:58;11.10;99.90
59208;DHT22;44977;53.132;6.408;2024-02-15T04:15:58;11.10;99.90
59208;DHT22;44977;53.132;6.408;2024-02-15T04:20:59;11.10;99.90
59208;DHT22;44977;53.132;6.408;2024-02-15T04:26:00;11.10;99.90
59208;DHT22;44977;53.132;6.408;2024-02-15T04:31:00;11.10;99.90
59208;DHT22;44977;53.132;6.408;2024-02-15T04:36:01;11.10;99.90
59208;DHT22;44977;53.132;6.408;2024-02-15T04:41:07;11.10;99.90
59208;DHT22;44977;53.132;6.408;2024-02-15T04:46:10;11.10;99.90
59208;DHT22;44977;53.132;6.408;2024-02-15T04:51:10;11.10;99.90
59208;DHT22;44977;53.132;6.408;2024-02-15T04:56:11;11.10;99.90
59208;DHT22;44977;53.132;6.408;2024-02-15T05:01:14;11.10;99.90
59208;DHT22;44977;53.132;6.408;2024-02-15T05:06:16;11.10;99.90
59208;DHT22;44977;53.132;6.408;2024-02-15T05:11:16;11.20;99.90
59208;DHT22;44977;53.132;6.408;2024-02-15T05:16:18;11.20;99.90
59208;DHT22;44977;53.132;6.408;2024-02-15T05:21:20;11.20;99.90
59208;DHT22;44977;53.132;6.408;2024-02-15T05:26:20;11.20;99.90
59208;DHT22;44977;53.132;6.408;2024-02-15T05:31:23;11.20;99.90
59208;DHT22;44977;53.132;6.408;2024-02-15T05:36:27;11.20;99.90
59208;DHT22;44977;53.132;6.408;2024-02-15T05:41:30;11.30;99.90
59208;DHT22;44977;53.132;6.408;2024-02-15T05:46:32;11.30;99.90
59208;DHT22;44977;53.132;6.408;2024-02-15T05:51:37;11.30;99.90
59208;DHT22;44977;53.132;6.408;2024-02-15T05:56:38;11.30;99.90
59208;DHT22;44977;53.132;6.408;2024-02-15T06:01:40;11.40;99.90
59208;DHT22;44977;53.132;6.408;2024-02-15T06:06:41;11.40;99.90
59208;DHT22;44977;53.132;6.408;2024-02-15T06:11:43;11.40;99.90
59208;DHT22;44977;53.132;6.408;2024-02-15T06:16:45;11.40;99.90
59208;DHT22;44977;53.132;6.408;2024-02-15T06:21:46;11.40;99.90
59208;DHT22;44977;53.132;6.408;2024-02-15T06:26:47;11.50;99.90
59208;DHT22;44977;53.132;6.408;2024-02-15T06:31:49;11.50;99.90
59208;DHT22;44977;53.132;6.408;2024-02-15T06:37:08;11.50;99.90
59208;DHT22;44977;53.132;6.408;2024-02-15T06:42:28;11.50;99.90
59208;DHT22;44977;53.132;6.408;2024-02-15T06:47:31;11.50;99.90
59208;DHT22;44977;53.132;6.408;2024-02-15T06:52:32;11.50;99.90
59208;DHT22;44977;53.132;6.408;2024-02-15T06:57:35;11.50;99.90
59208;DHT22;44977;53.132;6.408;2024-02-15T07:02:36;11.50;99.90
59208;DHT22;44977;53.132;6.408;2024-02-15T07:07:37;11.50;99.90
59208;DHT22;44977;53.132;6.408;2024-02-15T07:12:39;11.50;99.90
59208;DHT22;44977;53.132;6.408;2024-02-15T07:17:40;11.50;99.90
59208;DHT22;44977;53.132;6.408;2024-02-15T07:22:41;11.50;99.90
59208;DHT22;44977;53.132;6.408;2024-02-15T07:27:41;11.50;99.90
59208;DHT22;44977;53.132;6.408;2024-02-15T07:32:42;11.50;99.90
59208;DHT22;44977;53.132;6.408;2024-02-15T07:37:55;11.50;99.90
59208;DHT22;44977;53.132;6.408;2024-02-15T07:42:58;11.50;99.90
59208;DHT22;44977;53.132;6.408;2024-02-15T07:47:59;11.50;99.90
59208;DHT22;44977;53.132;6.408;2024-02-15T07:53:01;11.50;99.90
59208;DHT22;44977;53.132;6.408;2024-02-15T07:58:02;11.50;99.90
59208;DHT22;44977;53.132;6.408;2024-02-15T08:03:03;11.50;99.90
59208;DHT22;44977;53.132;6.408;2024-02-15T08:08:04;11.50;99.90
59208;DHT22;44977;53.132;6.408;2024-02-15T08:13:04;11.60;99.90
59208;DHT22;44977;53.132;6.408;2024-02-15T08:18:05;11.60;99.90
59208;DHT22;44977;53.132;6.408;2024-02-15T08:23:09;11.60;99.90
59208;DHT22;44977;53.132;6.408;2024-02-15T08:28:11;11.60;99.90
59208;DHT22;44977;53.132;6.408;2024-02-15T08:33:11;11.60;99.90
59208;DHT22;44977;53.132;6.408;2024-02-15T08:38:12;11.60;99.90
59208;DHT22;44977;53.132;6.408;2024-02-15T08:43:13;11.60;99.90
59208;DHT22;44977;53.132;6.408;2024-02-15T08:48:17;11.60;99.90
59208;DHT22;44977;53.132;6.408;2024-02-15T08:53:17;11.70;99.90
59208;DHT22;44977;53.132;6.408;2024-02-15T08:58:21;11.60;99.90
59208;DHT22;44977;53.132;6.408;2024-02-15T09:03:22;11.70;99.90
59208;DHT22;44977;53.132;6.408;2024-02-15T09:08:23;11.70;99.90
59208;DHT22;44977;53.132;6.408;2024-02-15T09:13:24;11.70;99.90
59208;DHT22;44977;53.132;6.408;2024-02-15T09:18:24;11.70;99.90
59208;DHT22;44977;53.132;6.408;2024-02-15T09:23:25;11.70;99.90
59208;DHT22;44977;53.132;6.408;2024-02-15T09:28:26;11.70;99.90
59208;DHT22;44977;53.132;6.408;2024-02-15T09:33:27;11.70;99.90
59208;DHT22;44977;53.132;6.408;2024-02-15T09:38:27;11.70;99.90
59208;DHT22;44977;53.132;6.408;2024-02-15T09:43:28;11.70;99.90
59208;DHT22;44977;53.132;6.408;2024-02-15T09:48:32;11.80;99.90
59208;DHT22;44977;53.132;6.408;2024-02-15T09:53:33;11.80;99.90
59208;DHT22;44977;53.132;6.408;2024-02-15T09:58:34;11.90;99.90
59208;DHT22;44977;53.132;6.408;2024-02-15T10:03:37;11.90;99.90
59208;DHT22;44977;53.132;6.408;2024-02-15T10:08:40;11.90;99.90
59208;DHT22;44977;53.132;6.408;2024-02-15T10:13:41;12.00;99.90
59208;DHT22;44977;53.132;6.408;2024-02-15T10:18:45;12.00;99.90
59208;DHT22;44977;53.132;6.408;2024-02-15T10:23:47;12.00;99.90
59208;DHT22;44977;53.132;6.408;2024-02-15T10:29:08;12.10;99.90
59208;DHT22;44977;53.132;6.408;2024-02-15T10:34:09;12.10;99.90
59208;DHT22;44977;53.132;6.408;2024-02-15T10:39:16;12.10;99.90
59208;DHT22;44977;53.132;6.408;2024-02-15T10:44:21;12.10;99.90
59208;DHT22;44977;53.132;6.408;2024-02-15T10:49:24;12.20;99.90
59208;DHT22;44977;53.132;6.408;2024-02-15T10:54:41;12.30;99.90
59208;DHT22;44977;53.132;6.408;2024-02-15T10:59:57;12.30;99.90
59208;DHT22;44977;53.132;6.408;2024-02-15T11:05:07;12.30;99.90
59208;DHT22;44977;53.132;6.408;2024-02-15T11:10:12;12.30;99.90
59208;DHT22;44977;53.132;6.408;2024-02-15T11:15:46;12.40;99.90
59208;DHT22;44977;53.132;6.408;2024-02-15T11:20:50;12.50;99.90
59208;DHT22;44977;53.132;6.408;2024-02-15T11:25:51;12.50;99.90
59208;DHT22;44977;53.132;6.408;2024-02-15T11:30:53;12.50;99.90
59208;DHT22;44977;53.132;6.408;2024-02-15T11:36:10;12.50;99.90
59208;DHT22;44977;53.132;6.408;2024-02-15T11:41:18;12.60;99.90
59208;DHT22;44977;53.132;6.408;2024-02-15T11:46:19;12.60;99.90
59208;DHT22;44977;53.132;6.408;2024-02-15T11:51:33;12.60;99.90
59208;DHT22;44977;53.132;6.408;2024-02-15T11:56:56;12.60;99.90
59208;DHT22;44977;53.132;6.408;2024-02-15T12:02:10;12.60;99.90
59208;DHT22;44977;53.132;6.408;2024-02-15T12:07:29;12.60;99.90
59208;DHT22;44977;53.132;6.408;2024-02-15T12:12:53;12.60;99.90
59208;DHT22;44977;53.132;6.408;2024-02-15T12:18:18;12.60;99.90
59208;DHT22;44977;53.132;6.408;2024-02-15T12:23:38;12.60;99.90
59208;DHT22;44977;53.132;6.408;2024-02-15T12:28:39;12.60;99.90
59208;DHT22;44977;53.132;6.408;2024-02-15T12:33:39;12.50;99.90
59208;DHT22;44977;53.132;6.408;2024-02-15T12:38:40;12.50;99.90
59208;DHT22;44977;53.132;6.408;2024-02-15T12:43:43;12.50;99.90
59208;DHT22;44977;53.132;6.408;2024-02-15T12:48:44;12.50;99.90
59208;DHT22;44977;53.132;6.408;2024-02-15T12:53:44;12.50;99.90
59208;DHT22;44977;53.132;6.408;2024-02-15T12:58:45;12.50;99.90
59208;DHT22;44977;53.132;6.408;2024-02-15T13:03:46;12.50;99.90
59208;DHT22;44977;53.132;6.408;2024-02-15T13:08:47;12.50;99.90
59208;DHT22;44977;53.132;6.408;2024-02-15T13:13:49;12.50;99.90
59208;DHT22;44977;53.132;6.408;2024-02-15T13:18:49;12.50;99.90
59208;DHT22;44977;53.132;6.408;2024-02-15T13:23:50;12.50;99.90
59208;DHT22;44977;53.132;6.408;2024-02-15T13:28:54;12.50;99.90
59208;DHT22;44977;53.132;6.408;2024-02-15T13:33:55;12.50;99.90
59208;DHT22;44977;53.132;6.408;2024-02-15T13:38:55;12.50;99.90
59208;DHT22;44977;53.132;6.408;2024-02-15T13:43:56;12.40;99.90
59208;DHT22;44977;53.132;6.408;2024-02-15T13:48:57;12.40;99.90
59208;DHT22;44977;53.132;6.408;2024-02-15T13:53:58;12.50;99.90
59208;DHT22;44977;53.132;6.408;2024-02-15T13:58:59;12.50;99.90
59208;DHT22;44977;53.132;6.408;2024-02-15T14:04:00;12.50;99.90
59208;DHT22;44977;53.132;6.408;2024-02-15T14:09:01;12.50;99.90
59208;DHT22;44977;53.132;6.408;2024-02-15T14:14:02;12.50;99.90
59208;DHT22;44977;53.132;6.408;2024-02-15T14:19:03;12.50;99.90
59208;DHT22;44977;53.132;6.408;2024-02-15T14:24:05;12.60;99.90
59208;DHT22;44977;53.132;6.408;2024-02-15T14:29:07;12.60;99.90
59208;DHT22;44977;53.132;6.408;2024-02-15T14:34:10;12.60;99.90
59208;DHT22;44977;53.132;6.408;2024-02-15T14:39:10;12.60;99.90
59208;DHT22;44977;53.132;6.408;2024-02-15T14:44:13;12.60;99.90
59208;DHT22;44977;53.132;6.408;2024-02-15T14:49:14;12.60;99.90
59208;DHT22;44977;53.132;6.408;2024-02-15T14:54:14;12.70;99.90
59208;DHT22;44977;53.132;6.408;2024-02-15T14:59:15;12.60;99.90
59208;DHT22;44977;53.132;6.408;2024-02-15T15:04:16;12.70;99.90
59208;DHT22;44977;53.132;6.408;2024-02-15T15:09:18;12.70;99.90
59208;DHT22;44977;53.132;6.408;2024-02-15T15:14:37;12.70;99.90
59208;DHT22;44977;53.132;6.408;2024-02-15T15:19:39;12.70;99.90
59208;DHT22;44977;53.132;6.408;2024-02-15T15:24:40;12.70;99.90
59208;DHT22;44977;53.132;6.408;2024-02-15T15:29:41;12.70;99.90
59208;DHT22;44977;53.132;6.408;2024-02-15T15:34:42;12.70;99.90
59208;DHT22;44977;53.132;6.408;2024-02-15T15:39:42;12.70;99.90
59208;DHT22;44977;53.132;6.408;2024-02-15T15:44:43;12.70;99.90
59208;DHT22;44977;53.132;6.408;2024-02-15T15:49:44;12.80;99.90
59208;DHT22;44977;53.132;6.408;2024-02-15T15:54:45;12.80;99.90
59208;DHT22;44977;53.132;6.408;2024-02-15T15:59:46;12.80;99.90
59208;DHT22;44977;53.132;6.408;2024-02-15T16:04:49;12.80;99.90
59208;DHT22;44977;53.132;6.408;2024-02-15T16:09:49;12.70;99.90
59208;DHT22;44977;53.132;6.408;2024-02-15T16:14:51;12.70;99.90
59208;DHT22;44977;53.132;6.408;2024-02-15T16:19:51;12.70;99.90
59208;DHT22;44977;53.132;6.408;2024-02-15T16:24:52;12.70;99.90
59208;DHT22;44977;53.132;6.408;2024-02-15T16:29:53;12.70;99.90
59208;DHT22;44977;53.132;6.408;2024-02-15T16:34:58;12.70;99.90
59208;DHT22;44977;53.132;6.408;2024-02-15T16:39:58;12.70;99.90
59208;DHT22;44977;53.132;6.408;2024-02-15T16:44:59;12.60;99.90
59208;DHT22;44977;53.132;6.408;2024-02-15T16:50:01;12.50;99.90
59208;DHT22;44977;53.132;6.408;2024-02-15T16:55:03;12.50;99.90
59208;DHT22;44977;53.132;6.408;2024-02-15T17:00:07;12.50;99.90
59208;DHT22;44977;53.132;6.408;2024-02-15T17:05:08;12.40;99.90
59208;DHT22;44977;53.132;6.408;2024-02-15T17:10:09;12.40;99.90
59208;DHT22;44977;53.132;6.408;2024-02-15T17:15:10;12.30;99.90
59208;DHT22;44977;53.132;6.408;2024-02-15T17:20:12;12.30;99.90
59208;DHT22;44977;53.132;6.408;2024-02-15T17:25:16;12.30;99.90
59208;DHT22;44977;53.132;6.408;2024-02-15T17:30:16;12.20;99.90
59208;DHT22;44977;53.132;6.408;2024-02-15T17:35:17;12.20;99.90
59208;DHT22;44977;53.132;6.408;2024-02-15T17:40:19;12.10;99.90
59208;DHT22;44977;53.132;6.408;2024-02-15T17:45:20;12.10;99.90
59208;DHT22;44977;53.132;6.408;2024-02-15T17:50:21;12.10;99.90
59208;DHT22;44977;53.132;6.408;2024-02-15T17:55:25;12.00;99.90
59208;DHT22;44977;53.132;6.408;2024-02-15T18:00:25;12.00;99.90
59208;DHT22;44977;53.132;6.408;2024-02-15T18:05:29;11.90;99.90
59208;DHT22;44977;53.132;6.408;2024-02-15T18:10:31;11.90;99.90
59208;DHT22;44977;53.132;6.408;2024-02-15T18:15:33;11.90;99.90
59208;DHT22;44977;53.132;6.408;2024-02-15T18:20:39;11.80;99.90
59208;DHT22;44977;53.132;6.408;2024-02-15T18:25:41;11.80;99.90
59208;DHT22;44977;53.132;6.408;2024-02-15T18:30:42;11.80;99.90
59208;DHT22;44977;53.132;6.408;2024-02-15T18:35:46;11.80;99.90
59208;DHT22;44977;53.132;6.408;2024-02-15T18:40:47;11.80;99.90
59208;DHT22;44977;53.132;6.408;2024-02-15T18:45:48;11.80;99.90
59208;DHT22;44977;53.132;6.408;2024-02-15T18:50:48;11.80;99.90
59208;DHT22;44977;53.132;6.408;2024-02-15T18:55:49;11.70;99.90
59208;DHT22;44977;53.132;6.408;2024-02-15T19:00:50;11.70;99.90
59208;DHT22;44977;53.132;6.408;2024-02-15T19:05:51;11.70;99.90
59208;DHT22;44977;53.132;6.408;2024-02-15T19:10:52;11.80;99.90
59208;DHT22;44977;53.132;6.408;2024-02-15T19:15:52;11.80;99.90
59208;DHT22;44977;53.132;6.408;2024-02-15T19:20:56;11.80;99.90
59208;DHT22;44977;53.132;6.408;2024-02-15T19:25:56;11.80;99.90
59208;DHT22;44977;53.132;6.408;2024-02-15T19:30:58;11.90;99.90
59208;DHT22;44977;53.132;6.408;2024-02-15T19:35:58;11.90;99.90
59208;DHT22;44977;53.132;6.408;2024-02-15T19:40:59;11.90;99.90
59208;DHT22;44977;53.132;6.408;2024-02-15T19:46:00;11.90;99.90
59208;DHT22;44977;53.132;6.408;2024-02-15T19:51:01;11.90;99.90
59208;DHT22;44977;53.132;6.408;2024-02-15T19:56:02;11.90;99.90
59208;DHT22;44977;53.132;6.408;2024-02-15T20:01:03;11.80;99.90
59208;DHT22;44977;53.132;6.408;2024-02-15T20:06:04;11.90;99.90
59208;DHT22;44977;53.132;6.408;2024-02-15T20:11:05;11.90;99.90
59208;DHT22;44977;53.132;6.408;2024-02-15T20:16:06;11.90;99.90
59208;DHT22;44977;53.132;6.408;2024-02-15T20:21:07;11.90;99.90
59208;DHT22;44977;53.132;6.408;2024-02-15T20:26:10;11.90;99.90
59208;DHT22;44977;53.132;6.408;2024-02-15T20:31:11;11.90;99.90
59208;DHT22;44977;53.132;6.408;2024-02-15T20:36:12;11.90;99.90
59208;DHT22;44977;53.132;6.408;2024-02-15T20:41:13;11.90;99.90
59208;DHT22;44977;53.132;6.408;2024-02-15T20:46:25;11.90;99.90
59208;DHT22;44977;53.132;6.408;2024-02-15T20:51:26;11.90;99.90
59208;DHT22;44977;53.132;6.408;2024-02-15T20:56:26;11.80;99.90
59208;DHT22;44977;53.132;6.408;2024-02-15T21:01:29;11.90;99.90
59208;DHT22;44977;53.132;6.408;2024-02-15T21:06:30;11.80;99.90
59208;DHT22;44977;53.132;6.408;2024-02-15T21:11:32;11.80;99.90
59208;DHT22;44977;53.132;6.408;2024-02-15T21:16:33;11.80;99.90
59208;DHT22;44977;53.132;6.408;2024-02-15T21:21:34;11.80;99.90
59208;DHT22;44977;53.132;6.408;2024-02-15T21:26:43;11.70;99.90
59208;DHT22;44977;53.132;6.408;2024-02-15T21:31:44;11.70;99.90
59208;DHT22;44977;53.132;6.408;2024-02-15T21:36:48;11.80;99.90
59208;DHT22;44977;53.132;6.408;2024-02-15T21:41:48;11.70;99.90
59208;DHT22;44977;53.132;6.408;2024-02-15T21:46:49;11.70;99.90
59208;DHT22;44977;53.132;6.408;2024-02-15T21:51:50;11.70;99.90
59208;DHT22;44977;53.132;6.408;2024-02-15T21:56:51;11.70;99.90
59208;DHT22;44977;53.132;6.408;2024-02-15T22:01:52;11.70;99.90
59208;DHT22;44977;53.132;6.408;2024-02-15T22:06:53;11.70;99.90
59208;DHT22;44977;53.132;6.408;2024-02-15T22:11:54;11.60;99.90
59208;DHT22;44977;53.132;6.408;2024-02-15T22:16:54;11.60;99.90
59208;DHT22;44977;53.132;6.408;2024-02-15T22:21:55;11.60;99.90
59208;DHT22;44977;53.132;6.408;2024-02-15T22:26:57;11.60;99.90
59208;DHT22;44977;53.132;6.408;2024-02-15T22:31:58;11.60;99.90
59208;DHT22;44977;53.132;6.408;2024-02-15T22:37:00;11.60;99.90
59208;DHT22;44977;53.132;6.408;2024-02-15T22:42:01;11.60;99.90
59208;DHT22;44977;53.132;6.408;2024-02-15T22:47:02;11.60;99.90
59208;DHT22;44977;53.132;6.408;2024-02-15T22:52:03;11.60;99.90
59208;DHT22;44977;53.132;6.408;2024-02-15T22:57:04;11.50;99.90
59208;DHT22;44977;53.132;6.408;2024-02-15T23:02:05;11.50;99.90
59208;DHT22;44977;53.132;6.408;2024-02-15T23:07:06;11.50;99.90
59208;DHT22;44977;53.132;6.408;2024-02-15T23:12:10;11.50;99.90
59208;DHT22;44977;53.132;6.408;2024-02-15T23:17:10;11.50;99.90
59208;DHT22;44977;53.132;6.408;2024-02-15T23:22:11;11.50;99.90
59208;DHT22;44977;53.132;6.408;2024-02-15T23:27:14;11.50;99.90
59208;DHT22;44977;53.132;6.408;2024-02-15T23:32:14;11.50;99.90
59208;DHT22;44977;53.132;6.408;2024-02-15T23:37:15;11.40;99.90
59208;DHT22;44977;53.132;6.408;2024-02-15T23:42:35;11.50;99.90
59208;DHT22;44977;53.132;6.408;2024-02-15T23:47:35;11.40;99.90
59208;DHT22;44977;53.132;6.408;2024-02-15T23:52:37;11.40;99.90
59208;DHT22;44977;53.132;6.408;2024-02-15T23:57:39;11.40;99.90
